Time;durP1;ratioP1;P1;durP2;ratioP2;P2;SDS_P1;SDS_P2;PMS_P1;PMS_P2;Temp;Humidity;BMP_temperature;BMP_pressure;BME280_temperature;BME280_humidity;BME280_pressure;Samples;Min_cycle;Max_cycle;Signal;HPM_P1;HPM_P2
2020/12/12 00:01:30;;;;;;;63.08;29.15;;;4.10;99.90;;;;;;5035330;28;20037;-61
2020/12/12 00:03:55;;;;;;;63.83;28.70;;;4.10;99.90;;;;;;5034833;28;20037;-61
2020/12/12 00:06:22;;;;;;;67.38;30.27;;;4.10;99.90;;;;;;5033129;28;20795;-61
2020/12/12 00:08:48;;;;;;;67.60;33.03;;;4.10;99.90;;;;;;5037101;28;20051;-61
2020/12/12 00:11:13;;;;;;;66.45;28.52;;;4.10;99.90;;;;;;5033843;28;20029;-61
2020/12/12 00:13:39;;;;;;;62.53;27.63;;;4.00;99.90;;;;;;5033221;28;20511;-61
2020/12/12 00:16:06;;;;;;;66.10;31.40;;;4.10;99.90;;;;;;5033576;28;20047;-61
2020/12/12 00:18:33;;;;;;;58.85;27.25;;;4.10;99.90;;;;;;5031246;28;20033;-61
2020/12/12 00:20:59;;;;;;;53.22;27.55;;;4.10;99.90;;;;;;5016469;28;20082;-61
2020/12/12 00:23:25;;;;;;;60.08;27.02;;;4.10;99.90;;;;;;5032793;28;20029;-61
2020/12/12 00:25:51;;;;;;;51.50;25.38;;;4.10;99.90;;;;;;5037179;28;20059;-61
2020/12/12 00:28:17;;;;;;;52.00;25.27;;;4.10;99.90;;;;;;5032998;28;20033;-61
2020/12/12 00:30:43;;;;;;;49.40;24.73;;;4.00;99.90;;;;;;5034774;28;20037;-61
2020/12/12 00:33:10;;;;;;;51.13;24.25;;;4.00;99.90;;;;;;5035167;28;20480;-61
2020/12/12 00:35:36;;;;;;;46.20;25.20;;;4.00;99.90;;;;;;5033150;28;20059;-61
2020/12/12 00:38:02;;;;;;;44.95;24.73;;;4.00;99.90;;;;;;5015217;28;20076;-61
2020/12/12 00:40:28;;;;;;;49.28;24.50;;;4.10;99.90;;;;;;5038153;28;20484;-61
2020/12/12 00:42:54;;;;;;;46.83;23.00;;;4.00;99.90;;;;;;5030995;28;20131;-61
2020/12/12 00:45:19;;;;;;;41.65;23.30;;;4.10;99.90;;;;;;5035700;28;20617;-61
2020/12/12 00:47:45;;;;;;;44.95;24.15;;;4.10;99.90;;;;;;5035393;28;20028;-61
2020/12/12 00:50:11;;;;;;;46.72;22.83;;;4.00;99.90;;;;;;5032908;28;20499;-61
2020/12/12 00:52:37;;;;;;;47.90;23.83;;;4.00;99.90;;;;;;5035606;28;20401;-61
2020/12/12 00:55:03;;;;;;;41.03;21.23;;;4.00;99.90;;;;;;5027946;28;20421;-61
2020/12/12 00:57:29;;;;;;;44.10;21.65;;;4.00;99.90;;;;;;5033552;28;20123;-61
2020/12/12 00:59:55;;;;;;;42.05;21.33;;;4.00;99.90;;;;;;5035410;28;20047;-61
2020/12/12 01:02:21;;;;;;;41.00;22.92;;;4.10;99.90;;;;;;5034160;28;20085;-61
2020/12/12 01:04:46;;;;;;;40.63;20.55;;;4.10;99.90;;;;;;5034649;28;20261;-61
2020/12/12 01:07:12;;;;;;;39.83;21.02;;;4.10;99.90;;;;;;5028638;28;20533;-60
2020/12/12 01:09:38;;;;;;;38.80;21.33;;;4.10;99.90;;;;;;5028629;28;20373;-61
2020/12/12 01:12:04;;;;;;;36.72;19.92;;;4.10;99.90;;;;;;5034001;28;20064;-61
2020/12/12 01:14:29;;;;;;;41.28;20.73;;;4.10;99.90;;;;;;5031748;28;20067;-61
2020/12/12 01:16:59;;;;;;;36.05;19.85;;;4.10;99.90;;;;;;5033014;28;20479;-61
2020/12/12 01:19:24;;;;;;;40.20;21.47;;;4.10;99.90;;;;;;5033690;28;20033;-61
2020/12/12 01:21:53;;;;;;;36.22;21.17;;;4.10;99.90;;;;;;5033238;28;20833;-61
2020/12/12 01:24:19;;;;;;;39.63;21.25;;;4.10;99.90;;;;;;5033394;28;20128;-61
2020/12/12 01:26:46;;;;;;;38.20;20.70;;;4.10;99.90;;;;;;5033906;28;20029;-61
2020/12/12 01:29:12;;;;;;;37.63;20.63;;;4.10;99.90;;;;;;5036283;28;20041;-61
2020/12/12 01:31:38;;;;;;;39.10;20.88;;;4.10;99.90;;;;;;5032961;28;20025;-61
2020/12/12 01:34:04;;;;;;;38.50;22.02;;;4.10;99.90;;;;;;5031208;28;20032;-61
2020/12/12 01:36:30;;;;;;;43.08;21.95;;;4.10;99.90;;;;;;5034859;28;20033;-61
2020/12/12 01:38:55;;;;;;;37.38;20.48;;;4.10;99.90;;;;;;5013485;28;20091;-61
2020/12/12 01:41:22;;;;;;;40.47;21.88;;;4.10;99.90;;;;;;5033664;28;20032;-61
2020/12/12 01:43:52;;;;;;;38.28;21.65;;;4.10;99.90;;;;;;5033058;28;20534;-61
2020/12/12 01:46:27;;;;;;;40.38;20.75;;;4.10;99.90;;;;;;5030696;28;20095;-61
2020/12/12 01:48:55;;;;;;;41.55;22.83;;;4.10;99.90;;;;;;5031606;28;20053;-61
2020/12/12 01:51:24;;;;;;;44.30;22.08;;;4.10;99.90;;;;;;5032414;28;20751;-61
2020/12/12 01:53:58;;;;;;;38.60;22.85;;;4.20;99.90;;;;;;5032757;28;20428;-61
2020/12/12 01:56:25;;;;;;;42.25;21.25;;;4.20;99.90;;;;;;5029526;28;20033;-61
2020/12/12 01:58:52;;;;;;;46.70;23.33;;;4.20;99.90;;;;;;5031534;28;20202;-61
2020/12/12 02:01:21;;;;;;;43.22;23.05;;;4.20;99.90;;;;;;5035951;28;20034;-60
2020/12/12 02:03:49;;;;;;;46.67;22.63;;;4.20;99.90;;;;;;5035626;28;20029;-61
2020/12/12 02:06:17;;;;;;;48.15;24.27;;;4.20;99.90;;;;;;5035008;28;20033;-61
2020/12/12 02:08:43;;;;;;;50.13;24.60;;;4.20;99.90;;;;;;5037690;28;20519;-61
2020/12/12 02:11:12;;;;;;;51.22;25.20;;;4.20;99.90;;;;;;5037978;28;20033;-61
2020/12/12 02:13:46;;;;;;;43.85;24.40;;;4.20;99.90;;;;;;5033613;28;20525;-61
2020/12/12 02:16:19;;;;;;;45.75;22.85;;;4.20;99.90;;;;;;5035797;28;20041;-61
2020/12/12 02:18:45;;;;;;;50.22;25.05;;;4.10;99.90;;;;;;5030064;28;20485;-61
2020/12/12 02:21:11;;;;;;;56.95;25.05;;;4.20;99.90;;;;;;5039374;28;20074;-61
2020/12/12 02:23:37;;;;;;;51.00;23.17;;;4.20;99.90;;;;;;5035752;28;20207;-60
2020/12/12 02:26:03;;;;;;;54.58;25.00;;;4.30;99.90;;;;;;5037419;28;20473;-61
2020/12/12 02:28:54;;;;;;;48.85;24.42;;;4.20;99.90;;;;;;5035657;28;20028;-61
2020/12/12 02:31:16;;;;;;;50.13;26.02;;;4.20;99.90;;;;;;5036204;28;20455;-61
2020/12/12 02:33:42;;;;;;;56.67;26.88;;;4.20;99.90;;;;;;5035603;28;20438;-61
2020/12/12 02:36:08;;;;;;;53.55;27.75;;;4.20;99.90;;;;;;5039703;28;20449;-63
2020/12/12 02:38:34;;;;;;;58.42;26.77;;;4.30;99.90;;;;;;5034903;28;20503;-60
2020/12/12 02:41:00;;;;;;;54.75;26.20;;;4.20;99.90;;;;;;5040519;28;20039;-62
2020/12/12 02:43:26;;;;;;;58.25;28.17;;;4.30;99.90;;;;;;5031286;28;20033;-61
2020/12/12 02:45:52;;;;;;;55.92;27.02;;;4.30;99.90;;;;;;5040453;28;20039;-61
2020/12/12 02:48:18;;;;;;;66.45;29.70;;;4.20;99.90;;;;;;5032466;28;20457;-60
2020/12/12 02:50:44;;;;;;;55.83;28.05;;;4.20;99.90;;;;;;5035808;28;20046;-60
2020/12/12 02:53:10;;;;;;;60.40;28.05;;;4.20;99.90;;;;;;5035386;28;20064;-61
2020/12/12 02:55:36;;;;;;;59.55;27.85;;;4.20;99.90;;;;;;5000501;28;20029;-61
2020/12/12 02:58:02;;;;;;;57.10;29.52;;;4.20;99.90;;;;;;5032980;28;20040;-61
2020/12/12 03:00:29;;;;;;;54.22;27.63;;;4.20;99.90;;;;;;5037177;28;20270;-61
2020/12/12 03:02:55;;;;;;;60.17;28.05;;;4.20;99.90;;;;;;5035603;28;20036;-61
2020/12/12 03:05:20;;;;;;;64.18;30.15;;;4.30;99.90;;;;;;5034036;28;20567;-61
2020/12/12 03:07:46;;;;;;;57.40;26.55;;;4.20;99.90;;;;;;5037735;28;20033;-61
2020/12/12 03:10:12;;;;;;;64.70;29.33;;;4.20;99.90;;;;;;5031432;28;20712;-61
2020/12/12 03:12:39;;;;;;;54.78;28.52;;;4.20;99.90;;;;;;5034208;28;20620;-61
2020/12/12 03:15:07;;;;;;;60.67;27.55;;;4.20;99.90;;;;;;5034895;28;20362;-61
2020/12/12 03:17:32;;;;;;;62.25;29.52;;;4.20;99.90;;;;;;5035671;28;20027;-61
2020/12/12 03:19:58;;;;;;;58.78;28.15;;;4.20;99.90;;;;;;5037786;28;20469;-61
2020/12/12 03:22:24;;;;;;;57.42;28.05;;;4.20;99.90;;;;;;5006773;28;20115;-60
2020/12/12 03:24:50;;;;;;;56.97;28.15;;;4.20;99.90;;;;;;5036336;28;20037;-61
2020/12/12 03:27:16;;;;;;;57.80;27.15;;;4.20;99.90;;;;;;5033091;28;20470;-61
2020/12/12 03:29:41;;;;;;;59.63;28.10;;;4.20;99.90;;;;;;5034699;28;20626;-60
2020/12/12 03:32:09;;;;;;;58.55;26.30;;;4.10;99.90;;;;;;5033659;28;20025;-61
2020/12/12 03:34:38;;;;;;;57.88;27.10;;;4.20;99.90;;;;;;5036382;28;20060;-61
2020/12/12 03:37:05;;;;;;;58.40;26.27;;;4.00;99.90;;;;;;5035049;28;20063;-61
2020/12/12 03:39:32;;;;;;;47.40;25.40;;;4.10;99.90;;;;;;5034897;28;20037;-60
2020/12/12 03:41:57;;;;;;;59.28;25.50;;;4.10;99.90;;;;;;5033145;28;20029;-61
2020/12/12 03:44:23;;;;;;;48.65;24.75;;;4.20;99.90;;;;;;5036200;28;20163;-61
2020/12/12 03:46:50;;;;;;;54.38;26.27;;;4.20;99.90;;;;;;5032287;28;20786;-61
2020/12/12 03:49:17;;;;;;;53.40;25.98;;;4.20;99.90;;;;;;5035742;28;20041;-61
2020/12/12 03:51:43;;;;;;;57.65;24.80;;;4.10;99.90;;;;;;5034114;28;20544;-61
2020/12/12 03:54:09;;;;;;;61.38;27.45;;;4.10;99.90;;;;;;5037222;28;20047;-61
2020/12/12 03:56:35;;;;;;;55.38;25.30;;;4.10;99.90;;;;;;5034224;28;20554;-61
2020/12/12 03:59:01;;;;;;;54.03;26.10;;;4.10;99.90;;;;;;5038495;28;20063;-61
2020/12/12 04:01:26;;;;;;;53.80;24.33;;;4.10;99.90;;;;;;5031845;28;20036;-61
2020/12/12 04:03:52;;;;;;;55.40;24.13;;;4.20;99.90;;;;;;5032039;28;20659;-61
2020/12/12 04:06:18;;;;;;;52.95;25.60;;;4.20;99.90;;;;;;5032971;28;20036;-61
2020/12/12 04:08:44;;;;;;;46.47;24.17;;;4.20;99.90;;;;;;5032214;28;20052;-61
2020/12/12 04:11:09;;;;;;;54.25;25.15;;;4.20;99.90;;;;;;5035720;28;20074;-60
2020/12/12 04:13:35;;;;;;;50.47;24.65;;;4.20;99.90;;;;;;5035617;28;20508;-61
2020/12/12 04:16:03;;;;;;;51.33;25.85;;;4.20;99.90;;;;;;5034666;28;20026;-61
2020/12/12 04:18:28;;;;;;;50.45;23.98;;;4.20;99.90;;;;;;5035193;28;20033;-60
2020/12/12 04:20:54;;;;;;;50.45;24.67;;;4.10;99.90;;;;;;5032414;28;20032;-61
2020/12/12 04:23:20;;;;;;;49.22;24.48;;;4.20;99.90;;;;;;5031986;28;20041;-61
2020/12/12 04:25:46;;;;;;;49.83;23.58;;;4.20;99.90;;;;;;5035993;28;20039;-61
2020/12/12 04:28:11;;;;;;;48.92;23.70;;;4.20;99.90;;;;;;5035598;28;20038;-61
2020/12/12 04:30:37;;;;;;;46.50;23.95;;;4.30;99.90;;;;;;5032605;28;20041;-61
2020/12/12 04:33:03;;;;;;;49.55;24.60;;;4.20;99.90;;;;;;5035149;28;20095;-60
2020/12/12 04:35:29;;;;;;;49.22;23.95;;;4.30;99.90;;;;;;5031663;28;20392;-61
2020/12/12 04:37:55;;;;;;;48.50;24.42;;;4.20;99.90;;;;;;5031753;28;20053;-61
2020/12/12 04:40:22;;;;;;;45.85;24.40;;;4.30;99.90;;;;;;5035474;28;20035;-61
2020/12/12 04:42:48;;;;;;;48.75;23.20;;;4.20;99.90;;;;;;5033082;28;20446;-61
2020/12/12 04:45:20;;;;;;;45.78;24.10;;;4.20;99.90;;;;;;5033248;28;20047;-61
2020/12/12 04:47:48;;;;;;;52.88;24.20;;;4.20;99.90;;;;;;5032363;28;20029;-61
2020/12/12 04:50:15;;;;;;;51.60;24.73;;;4.20;99.90;;;;;;5028364;28;20119;-61
2020/12/12 04:52:42;;;;;;;46.78;24.95;;;4.20;99.90;;;;;;5020223;28;20043;-61
2020/12/12 04:55:09;;;;;;;49.70;23.83;;;4.20;99.90;;;;;;5025477;28;20151;-61
2020/12/12 04:57:39;;;;;;;49.58;23.88;;;4.20;99.90;;;;;;5006693;28;20559;-61
2020/12/12 05:00:13;;;;;;;44.22;22.58;;;4.20;99.90;;;;;;5005773;28;20037;-61
2020/12/12 05:02:39;;;;;;;45.42;24.17;;;4.20;99.90;;;;;;4999308;28;20175;-61
2020/12/12 05:05:07;;;;;;;47.17;24.10;;;4.20;99.90;;;;;;5021105;28;20450;-61
2020/12/12 05:07:34;;;;;;;51.33;24.92;;;4.20;99.90;;;;;;5025148;28;20055;-61
2020/12/12 05:10:01;;;;;;;47.47;23.98;;;4.30;99.90;;;;;;4992470;28;20072;-61
2020/12/12 05:12:28;;;;;;;50.15;22.92;;;4.30;99.90;;;;;;5006440;28;20052;-61
2020/12/12 05:14:53;;;;;;;50.42;23.40;;;4.20;99.90;;;;;;5003422;28;20489;-61
2020/12/12 05:17:20;;;;;;;49.47;23.33;;;4.30;99.90;;;;;;5007941;28;20529;-61
2020/12/12 05:19:48;;;;;;;51.30;23.02;;;4.20;99.90;;;;;;5015578;28;20025;-61
2020/12/12 05:22:14;;;;;;;51.15;24.10;;;4.30;99.90;;;;;;5017298;28;20236;-61
2020/12/12 05:24:40;;;;;;;46.13;21.83;;;4.30;99.90;;;;;;5016310;28;20037;-61
2020/12/12 05:27:06;;;;;;;47.10;23.10;;;4.30;99.90;;;;;;5019976;28;20029;-61
2020/12/12 05:29:32;;;;;;;47.03;23.15;;;4.30;99.90;;;;;;5020158;28;20053;-60
2020/12/12 05:31:58;;;;;;;51.20;25.48;;;4.20;99.90;;;;;;5014034;28;20029;-61
2020/12/12 05:34:25;;;;;;;48.85;22.50;;;4.20;99.90;;;;;;5018159;28;20171;-60
2020/12/12 05:36:51;;;;;;;49.45;23.52;;;4.20;99.90;;;;;;5008918;28;20043;-61
2020/12/12 05:39:17;;;;;;;51.33;22.67;;;4.20;99.90;;;;;;5003346;28;20033;-61
2020/12/12 05:41:46;;;;;;;53.08;25.70;;;4.30;99.90;;;;;;4999348;28;20044;-61
2020/12/12 05:44:14;;;;;;;49.95;24.60;;;4.20;99.90;;;;;;5000118;28;20038;-61
2020/12/12 05:46:40;;;;;;;50.08;25.08;;;4.20;99.90;;;;;;4979964;28;21347;-60
2020/12/12 05:49:06;;;;;;;57.60;25.27;;;4.20;99.90;;;;;;5000370;28;20324;-61
2020/12/12 05:51:32;;;;;;;49.05;24.27;;;4.30;99.90;;;;;;5004192;28;20037;-61
2020/12/12 05:54:00;;;;;;;55.03;24.63;;;4.30;99.90;;;;;;5011477;28;20204;-61
2020/12/12 05:56:27;;;;;;;45.85;23.85;;;4.30;99.90;;;;;;5029041;28;20052;-61
2020/12/12 05:58:54;;;;;;;52.38;25.02;;;4.30;99.90;;;;;;5024050;28;20430;-61
2020/12/12 06:01:22;;;;;;;55.35;25.48;;;4.30;99.90;;;;;;5026356;28;20120;-61
2020/12/12 06:03:57;;;;;;;55.10;24.92;;;4.30;99.90;;;;;;5006469;28;20032;-61
2020/12/12 06:06:25;;;;;;;51.97;25.48;;;4.30;99.90;;;;;;5012528;28;20847;-60
2020/12/12 06:09:06;;;;;;;61.63;28.52;;;4.30;99.90;;;;;;5020436;28;20052;-61
2020/12/12 06:11:33;;;;;;;58.83;26.73;;;4.30;99.90;;;;;;5013448;28;20675;-60
2020/12/12 06:14:04;;;;;;;60.90;27.13;;;4.30;99.90;;;;;;5016223;28;20029;-61
2020/12/12 06:16:32;;;;;;;55.50;26.83;;;4.30;99.90;;;;;;5019182;28;20038;-61
2020/12/12 06:19:16;;;;;;;58.40;26.90;;;4.30;99.90;;;;;;5016552;28;20479;-61
2020/12/12 06:21:44;;;;;;;62.63;27.95;;;4.30;99.90;;;;;;4992479;28;20028;-61
2020/12/12 06:24:15;;;;;;;62.92;27.85;;;4.30;99.90;;;;;;5012200;28;20065;-61
2020/12/12 06:26:50;;;;;;;60.22;26.42;;;4.30;99.90;;;;;;5016641;28;20485;-61
2020/12/12 06:29:18;;;;;;;56.88;26.42;;;4.30;99.90;;;;;;5009960;28;20239;-61
2020/12/12 06:31:44;;;;;;;57.90;28.00;;;4.30;99.90;;;;;;5014725;28;20112;-61
2020/12/12 06:34:11;;;;;;;54.00;26.60;;;4.30;99.90;;;;;;5017789;28;20033;-60
2020/12/12 06:36:43;;;;;;;52.08;24.85;;;4.30;99.90;;;;;;5016011;28;20537;-60
2020/12/12 06:39:23;;;;;;;52.45;25.83;;;4.30;99.90;;;;;;5016186;28;20618;-61
2020/12/12 06:41:54;;;;;;;53.55;26.35;;;4.30;99.90;;;;;;5012248;28;20129;-61
2020/12/12 06:44:31;;;;;;;56.50;26.10;;;4.20;99.90;;;;;;5016326;28;20435;-61
2020/12/12 06:46:57;;;;;;;57.15;27.50;;;4.20;99.90;;;;;;5030211;28;20143;-61
2020/12/12 06:49:23;;;;;;;58.63;27.58;;;4.20;99.90;;;;;;5030751;28;20056;-61
2020/12/12 06:51:50;;;;;;;58.85;25.50;;;4.20;99.90;;;;;;5034105;28;20025;-60
2020/12/12 06:54:17;;;;;;;45.00;24.55;;;4.20;99.90;;;;;;5024769;28;20033;-61
2020/12/12 06:56:42;;;;;;;52.08;25.80;;;4.20;99.90;;;;;;5030333;28;20051;-61
2020/12/12 06:59:30;;;;;;;55.03;25.08;;;4.20;99.90;;;;;;5026533;28;20029;-60
2020/12/12 07:02:04;;;;;;;54.72;26.17;;;4.20;99.90;;;;;;5029912;28;20180;-61
2020/12/12 07:04:32;;;;;;;51.05;26.02;;;4.30;99.90;;;;;;5023181;28;20036;-61
2020/12/12 07:07:06;;;;;;;51.70;28.70;;;4.30;99.90;;;;;;5022336;28;20585;-61
2020/12/12 07:09:33;;;;;;;51.25;25.25;;;4.30;99.90;;;;;;5024480;28;20037;-60
2020/12/12 07:12:00;;;;;;;57.25;25.95;;;4.30;99.90;;;;;;5003867;28;20041;-61
2020/12/12 07:14:26;;;;;;;55.67;27.60;;;4.30;99.90;;;;;;5018893;28;20462;-61
2020/12/12 07:16:54;;;;;;;61.85;28.42;;;4.30;99.90;;;;;;5024340;28;20342;-61
2020/12/12 07:19:40;;;;;;;54.88;25.02;;;4.20;99.90;;;;;;5032738;28;20439;-61
2020/12/12 07:22:08;;;;;;;51.80;26.27;;;4.30;99.90;;;;;;5029607;28;20029;-60
2020/12/12 07:24:35;;;;;;;56.40;27.33;;;4.20;99.90;;;;;;5026477;28;20150;-61
2020/12/12 07:27:02;;;;;;;54.05;26.23;;;4.30;99.90;;;;;;5027180;28;20228;-61
2020/12/12 07:29:28;;;;;;;53.60;25.65;;;4.30;99.90;;;;;;5017850;28;20037;-61
2020/12/12 07:31:55;;;;;;;59.40;27.23;;;4.30;99.90;;;;;;5013742;28;20030;-61
2020/12/12 07:34:22;;;;;;;57.35;28.23;;;4.30;99.90;;;;;;5035722;28;20033;-61
2020/12/12 07:37:09;;;;;;;55.15;26.85;;;4.30;99.90;;;;;;5019741;28;20051;-61
2020/12/12 07:39:43;;;;;;;62.95;28.35;;;4.30;99.90;;;;;;5017925;28;20044;-61
2020/12/12 07:42:11;;;;;;;61.72;28.45;;;4.30;99.90;;;;;;5033926;28;20436;-61
2020/12/12 07:44:39;;;;;;;56.60;29.55;;;4.30;99.90;;;;;;5028448;28;21267;-61
2020/12/12 07:47:10;;;;;;;58.15;28.02;;;4.30;99.90;;;;;;5037052;28;20812;-61
2020/12/12 07:49:37;;;;;;;58.75;27.67;;;4.20;99.90;;;;;;5003270;28;20099;-61
2020/12/12 07:52:11;;;;;;;67.75;30.35;;;4.20;99.90;;;;;;5035397;28;20487;-60
2020/12/12 07:54:43;;;;;;;64.53;32.47;;;4.20;99.90;;;;;;5026137;28;20136;-60
2020/12/12 07:57:12;;;;;;;67.53;31.58;;;4.20;99.90;;;;;;5020132;28;20040;-61
2020/12/12 07:59:38;;;;;;;66.65;31.10;;;4.20;99.90;;;;;;5027172;28;20575;-61
2020/12/12 08:02:05;;;;;;;62.53;30.48;;;4.20;99.90;;;;;;5032106;28;20041;-60
2020/12/12 08:04:32;;;;;;;59.75;29.48;;;4.20;99.90;;;;;;5025517;28;20033;-61
2020/12/12 08:07:19;;;;;;;56.08;27.45;;;4.20;99.90;;;;;;5032895;28;20561;-60
2020/12/12 08:09:48;;;;;;;51.95;26.10;;;4.10;99.90;;;;;;5028850;28;20049;-61
2020/12/12 08:12:32;;;;;;;56.95;27.77;;;4.10;99.90;;;;;;5013185;28;20025;-61
2020/12/12 08:17:44;;;;;;;53.97;26.58;;;4.20;99.90;;;;;;5015883;28;20045;-61
2020/12/12 08:20:16;;;;;;;48.70;24.88;;;4.20;99.90;;;;;;5015791;28;20043;-61
2020/12/12 08:22:43;;;;;;;50.88;23.88;;;4.20;99.90;;;;;;5014081;28;20531;-61
2020/12/12 08:25:10;;;;;;;49.95;23.67;;;4.20;99.90;;;;;;5025044;28;20638;-62
2020/12/12 08:27:37;;;;;;;51.35;25.77;;;4.10;99.90;;;;;;5035599;28;20099;-62
2020/12/12 08:30:05;;;;;;;57.10;25.90;;;4.20;99.90;;;;;;5035916;28;20069;-63
2020/12/12 08:32:39;;;;;;;44.67;24.20;;;4.20;99.90;;;;;;5034511;28;20112;-62
2020/12/12 08:35:20;;;;;;;45.15;22.25;;;4.20;99.90;;;;;;5029191;28;20030;-62
2020/12/12 08:37:55;;;;;;;46.17;22.02;;;4.20;99.90;;;;;;5030681;28;20400;-63
2020/12/12 08:40:23;;;;;;;43.67;21.92;;;4.30;99.90;;;;;;5015015;28;20138;-62
2020/12/12 08:43:07;;;;;;;44.15;23.00;;;4.20;99.90;;;;;;5034467;28;20040;-62
2020/12/12 08:45:53;;;;;;;45.75;22.30;;;4.20;99.90;;;;;;5031219;28;20036;-62
2020/12/12 08:48:18;;;;;;;44.97;21.83;;;4.20;99.90;;;;;;5033347;28;20175;-63
2020/12/12 08:50:53;;;;;;;48.10;23.17;;;4.20;99.90;;;;;;5027439;28;20156;-63
2020/12/12 08:53:35;;;;;;;44.88;22.00;;;4.20;99.90;;;;;;5022754;28;20029;-62
2020/12/12 08:56:08;;;;;;;40.10;20.17;;;4.20;99.90;;;;;;5031762;28;20032;-62
2020/12/12 08:58:35;;;;;;;36.40;19.33;;;4.20;99.90;;;;;;5035592;28;20035;-63
2020/12/12 09:01:15;;;;;;;37.85;19.83;;;4.20;99.90;;;;;;5031069;28;20036;-62
2020/12/12 09:04:01;;;;;;;39.08;19.63;;;4.20;99.90;;;;;;5033139;28;20106;-63
2020/12/12 09:06:35;;;;;;;39.85;20.02;;;4.20;99.90;;;;;;5032997;28;20144;-63
2020/12/12 09:09:11;;;;;;;37.78;18.92;;;4.20;99.90;;;;;;5033000;28;20036;-62
2020/12/12 09:11:41;;;;;;;35.75;18.15;;;4.20;99.90;;;;;;5032537;28;20096;-63
2020/12/12 09:14:07;;;;;;;36.72;18.17;;;4.20;99.90;;;;;;5034694;28;20029;-62
2020/12/12 09:16:33;;;;;;;32.63;17.88;;;4.20;99.90;;;;;;5034700;28;20032;-62
2020/12/12 09:18:59;;;;;;;35.63;17.52;;;4.20;99.90;;;;;;5030342;28;20064;-63
2020/12/12 09:21:25;;;;;;;35.08;17.10;;;4.20;99.90;;;;;;5031626;28;20032;-63
2020/12/12 09:23:51;;;;;;;35.40;18.23;;;4.20;99.90;;;;;;5030720;28;20040;-63
2020/12/12 09:26:19;;;;;;;37.63;18.33;;;4.30;99.90;;;;;;5035181;28;20361;-63
2020/12/12 09:28:45;;;;;;;35.05;17.65;;;4.30;99.90;;;;;;5033011;28;20021;-63
2020/12/12 09:31:14;;;;;;;35.92;18.42;;;4.30;99.90;;;;;;5027093;28;20033;-63
2020/12/12 09:33:40;;;;;;;35.78;17.00;;;4.30;99.90;;;;;;5028787;28;20407;-62
2020/12/12 09:36:06;;;;;;;36.40;18.02;;;4.30;99.90;;;;;;5035743;28;20037;-63
2020/12/12 09:38:32;;;;;;;35.00;18.73;;;4.30;99.90;;;;;;5032474;28;20044;-63
2020/12/12 09:40:59;;;;;;;40.83;19.38;;;4.30;99.90;;;;;;5037705;28;20110;-62
2020/12/12 09:43:25;;;;;;;42.67;18.73;;;4.20;99.90;;;;;;5029435;28;20108;-63
2020/12/12 09:45:51;;;;;;;40.88;19.27;;;4.30;99.90;;;;;;5029955;28;20044;-63
2020/12/12 09:48:17;;;;;;;37.47;18.83;;;4.30;99.90;;;;;;5035206;28;20029;-63
2020/12/12 09:50:43;;;;;;;39.88;19.60;;;4.30;99.90;;;;;;5036222;28;20045;-62
2020/12/12 09:53:10;;;;;;;36.45;19.00;;;4.30;99.90;;;;;;5029867;28;20495;-63
2020/12/12 09:55:38;;;;;;;33.63;18.52;;;4.30;99.90;;;;;;5034561;28;20039;-62
2020/12/12 09:58:05;;;;;;;39.03;20.10;;;4.30;99.90;;;;;;5029614;28;20397;-63
2020/12/12 10:00:32;;;;;;;36.25;18.85;;;4.30;99.90;;;;;;5024885;28;20088;-63
2020/12/12 10:02:58;;;;;;;40.33;19.50;;;4.30;99.90;;;;;;4995563;28;20141;-62
2020/12/12 10:05:24;;;;;;;36.65;19.73;;;4.30;99.90;;;;;;5006406;28;20102;-63
2020/12/12 10:07:53;;;;;;;43.13;21.65;;;4.30;99.90;;;;;;5028418;28;20505;-62
2020/12/12 10:10:18;;;;;;;47.38;21.65;;;4.30;99.90;;;;;;5029516;28;20045;-63
2020/12/12 10:12:44;;;;;;;45.05;20.92;;;4.30;99.90;;;;;;5033001;28;20040;-63
2020/12/12 10:15:10;;;;;;;46.60;22.40;;;4.30;99.90;;;;;;5012184;28;20115;-63
2020/12/12 10:17:36;;;;;;;49.67;22.20;;;4.30;99.90;;;;;;5028525;28;20567;-63
2020/12/12 10:20:02;;;;;;;49.40;23.92;;;4.30;99.90;;;;;;5012353;28;20072;-63
2020/12/12 10:22:28;;;;;;;47.72;23.55;;;4.30;99.90;;;;;;5038632;28;20028;-62
2020/12/12 10:24:54;;;;;;;48.83;23.98;;;4.30;99.90;;;;;;5033831;28;20033;-63
2020/12/12 10:27:20;;;;;;;50.30;23.42;;;4.30;99.90;;;;;;5034356;28;20036;-63
2020/12/12 10:29:46;;;;;;;43.95;21.73;;;4.30;99.90;;;;;;5017563;28;20571;-63
2020/12/12 10:32:12;;;;;;;51.22;25.33;;;4.30;99.90;;;;;;5035639;28;20025;-64
2020/12/12 10:34:37;;;;;;;46.88;24.13;;;4.30;99.90;;;;;;5038647;28;20607;-63
2020/12/12 10:37:03;;;;;;;58.78;26.77;;;4.40;99.90;;;;;;5002737;28;20045;-63
2020/12/12 10:39:35;;;;;;;48.92;24.77;;;4.30;99.90;;;;;;5031769;28;20036;-62
2020/12/12 10:42:01;;;;;;;48.55;24.25;;;4.30;99.90;;;;;;5032688;28;20056;-62
2020/12/12 10:44:27;;;;;;;54.45;25.92;;;4.30;99.90;;;;;;5036973;28;20132;-63
2020/12/12 10:46:53;;;;;;;51.90;24.58;;;4.30;99.90;;;;;;5036584;28;20040;-63
2020/12/12 10:49:19;;;;;;;51.97;26.10;;;4.30;99.90;;;;;;5039090;28;20040;-62
2020/12/12 10:51:49;;;;;;;51.45;25.42;;;4.30;99.90;;;;;;5028625;28;20560;-63
2020/12/12 10:54:19;;;;;;;49.72;26.55;;;4.30;99.90;;;;;;5024848;28;20029;-63
2020/12/12 10:56:45;;;;;;;56.78;26.05;;;4.30;99.90;;;;;;5030215;28;20053;-63
2020/12/12 10:59:12;;;;;;;54.50;24.77;;;4.30;99.90;;;;;;5005355;28;20084;-63
2020/12/12 11:01:37;;;;;;;54.80;26.17;;;4.40;99.90;;;;;;5001305;28;20099;-63
2020/12/12 11:04:04;;;;;;;57.25;26.83;;;4.30;99.90;;;;;;5028460;28;20021;-63
2020/12/12 11:06:32;;;;;;;56.47;25.58;;;4.40;99.90;;;;;;5033051;28;20035;-63
2020/12/12 11:08:58;;;;;;;58.97;27.35;;;4.40;99.90;;;;;;5033108;28;21498;-63
2020/12/12 11:11:24;;;;;;;51.53;25.35;;;4.30;99.90;;;;;;5037821;28;20806;-63
2020/12/12 11:13:50;;;;;;;58.20;26.65;;;4.30;99.90;;;;;;5029117;28;20021;-62
2020/12/12 11:16:23;;;;;;;61.67;26.70;;;4.30;99.90;;;;;;5038820;28;20029;-63
2020/12/12 11:18:53;;;;;;;50.00;27.15;;;4.40;99.90;;;;;;5034334;28;20101;-63
2020/12/12 11:21:23;;;;;;;55.92;25.42;;;4.40;99.90;;;;;;5038238;28;20033;-63
2020/12/12 11:23:49;;;;;;;58.00;26.48;;;4.40;99.90;;;;;;5032756;28;20071;-63
2020/12/12 11:26:16;;;;;;;56.70;26.30;;;4.40;99.90;;;;;;5033303;28;21968;-63
2020/12/12 11:28:44;;;;;;;55.40;26.98;;;4.50;99.90;;;;;;5033173;28;20025;-63
2020/12/12 11:31:21;;;;;;;54.70;25.98;;;4.50;99.90;;;;;;5031608;28;20033;-63
2020/12/12 11:33:51;;;;;;;53.40;26.55;;;4.50;99.90;;;;;;5022086;28;20034;-63
2020/12/12 11:46:38;;;;;;;59.65;27.98;;;4.50;99.90;;;;;;5001818;28;20030;-63
2020/12/12 11:49:07;;;;;;;54.90;26.38;;;4.60;99.90;;;;;;5003221;28;20033;-63
2020/12/12 11:51:37;;;;;;;52.20;25.60;;;4.60;99.90;;;;;;5008532;28;20040;-63
2020/12/12 11:54:04;;;;;;;50.85;25.33;;;4.60;99.90;;;;;;5017135;28;20446;-63
2020/12/12 11:56:30;;;;;;;51.03;25.30;;;4.60;99.90;;;;;;5003001;28;20458;-63
2020/12/12 11:58:56;;;;;;;53.03;28.23;;;4.60;99.90;;;;;;5001110;28;20033;-63
2020/12/12 12:01:24;;;;;;;53.83;26.63;;;4.60;99.90;;;;;;5001545;28;20034;-63
2020/12/12 12:03:51;;;;;;;47.15;25.73;;;4.60;99.90;;;;;;5000232;28;20037;-63
2020/12/12 12:06:18;;;;;;;52.33;24.83;;;4.60;99.90;;;;;;5003712;28;21346;-63
2020/12/12 12:11:31;;;;;;;49.50;24.95;;;4.70;99.90;;;;;;5025844;28;20135;-63
2020/12/12 12:14:04;;;;;;;48.42;24.92;;;4.70;99.90;;;;;;5031414;28;20032;-63
2020/12/12 12:16:39;;;;;;;45.67;23.88;;;4.70;99.90;;;;;;5020441;28;20116;-63
2020/12/12 12:19:09;;;;;;;43.83;24.30;;;4.70;99.90;;;;;;5032026;28;20120;-63
2020/12/12 12:21:36;;;;;;;42.67;22.30;;;4.70;99.90;;;;;;5020289;28;20102;-63
2020/12/12 12:24:03;;;;;;;43.00;21.77;;;4.70;99.90;;;;;;5017531;28;20032;-63
2020/12/12 12:26:30;;;;;;;47.15;23.55;;;4.70;99.90;;;;;;5014139;28;20086;-63
2020/12/12 12:28:56;;;;;;;44.08;23.25;;;4.80;99.90;;;;;;4993395;28;20629;-63
2020/12/12 12:31:22;;;;;;;41.17;21.92;;;4.70;99.90;;;;;;4990030;28;20029;-63
2020/12/12 12:33:49;;;;;;;47.22;25.42;;;4.70;99.90;;;;;;5020489;28;20419;-63
2020/12/12 12:36:16;;;;;;;43.00;23.92;;;4.60;99.90;;;;;;5024664;28;20472;-63
2020/12/12 12:38:42;;;;;;;51.03;24.98;;;4.60;99.90;;;;;;5021523;28;20069;-63
2020/12/12 12:41:07;;;;;;;48.83;25.30;;;4.70;99.90;;;;;;5023047;28;20124;-62
2020/12/12 12:43:33;;;;;;;45.45;23.40;;;4.70;99.90;;;;;;5030144;28;20132;-63
2020/12/12 12:45:59;;;;;;;45.78;24.10;;;4.80;99.90;;;;;;5010409;28;20179;-63
2020/12/12 12:48:25;;;;;;;46.53;24.85;;;4.80;99.90;;;;;;5030230;28;20029;-62
2020/12/12 12:50:51;;;;;;;43.95;23.50;;;4.80;99.90;;;;;;5024079;28;20098;-63
2020/12/12 12:53:17;;;;;;;45.20;24.17;;;4.80;99.90;;;;;;5031611;28;20095;-63
2020/12/12 12:55:43;;;;;;;46.13;25.20;;;4.80;99.90;;;;;;5028997;28;20493;-63